Time,TemperatureF,DewpointF,PressureIn,WindDirection,WindDirectionDegrees,WindSpeedMPH,WindSpeedGustMPH,Humidity,HourlyPrecipIn,Conditions,Clouds,dailyrainin,SoftwareType,DateUTC
2017-01-23 00:04:00,43.6,41.7,30.06,WNW,286,0.0,0.0,93,0.00,,,0.00,WeatherTracker,2017-01-23 08:04:00,
2017-01-23 00:09:00,43.7,41.8,30.06,WNW,287,0.0,0.0,93,0.00,,,0.00,WeatherTracker,2017-01-23 08:09:00,
2017-01-23 00:14:00,43.7,41.8,30.06,WNW,286,0.0,0.0,93,0.00,,,0.00,WeatherTracker,2017-01-23 08:14:00,
2017-01-23 00:19:00,43.7,41.8,30.06,WNW,286,0.0,0.0,93,0.00,,,0.00,WeatherTracker,2017-01-23 08:19:00,
2017-01-23 00:24:00,43.6,41.7,30.06,WNW,286,0.0,0.0,93,0.00,,,0.00,WeatherTracker,2017-01-23 08:24:00,
2017-01-23 00:29:00,43.6,41.7,30.06,WNW,287,0.0,0.0,93,0.00,,,0.00,WeatherTracker,2017-01-23 08:29:00,
2017-01-23 00:34:00,43.6,41.7,30.06,WNW,286,0.0,0.0,93,0.00,,,0.00,WeatherTracker,2017-01-23 08:34:00,
2017-01-23 00:39:00,43.7,41.8,30.06,WNW,286,0.0,0.0,93,0.00,,,0.00,WeatherTracker,2017-01-23 08:39:00,
2017-01-23 00:44:00,43.7,41.8,30.06,WNW,286,0.0,0.0,93,0.00,,,0.00,WeatherTracker,2017-01-23 08:44:00,
2017-01-23 00:50:00,43.7,41.8,30.06,WNW,286,0.0,0.0,93,0.00,,,0.00,WeatherTracker,2017-01-23 08:50:00,
2017-01-23 00:55:00,43.7,41.8,30.06,WNW,287,0.0,0.0,93,0.00,,,0.00,WeatherTracker,2017-01-23 08:55:00,
2017-01-23 01:00:00,43.8,41.9,30.06,WNW,286,0.0,0.0,93,0.00,,,0.00,WeatherTracker,2017-01-23 09:00:00,
2017-01-23 01:05:00,43.9,42.0,30.06,WNW,286,0.0,0.0,93,0.00,,,0.00,WeatherTracker,2017-01-23 09:05:00,
2017-01-23 01:10:00,43.9,42.0,30.06,WNW,286,0.0,0.0,93,0.00,,,0.00,WeatherTracker,2017-01-23 09:10:00,
2017-01-23 01:15:00,43.8,41.9,30.06,WNW,286,0.0,0.0,93,0.00,,,0.00,WeatherTracker,2017-01-23 09:15:00,
2017-01-23 01:20:00,43.8,41.9,30.06,WNW,286,0.0,0.0,93,0.00,,,0.00,WeatherTracker,2017-01-23 09:20:00,
2017-01-23 01:25:00,43.8,41.9,30.06,WNW,286,0.0,0.0,93,0.00,,,0.00,WeatherTracker,2017-01-23 09:25:00,
2017-01-23 01:30:00,43.9,42.0,30.06,WNW,286,0.0,0.0,93,0.00,,,0.00,WeatherTracker,2017-01-23 09:30:00,
2017-01-23 01:35:00,43.9,42.0,30.06,WNW,286,0.0,0.0,93,0.00,,,0.00,WeatherTracker,2017-01-23 09:35:00,
2017-01-23 01:40:00,43.9,42.0,30.06,WNW,286,1.0,0.0,93,0.00,,,0.00,WeatherTracker,2017-01-23 09:40:00,
2017-01-23 01:45:00,44.1,42.2,30.06,WNW,286,2.0,0.0,93,0.00,,,0.00,WeatherTracker,2017-01-23 09:45:00,
2017-01-23 01:50:00,44.0,42.1,30.06,WNW,286,0.0,0.0,93,0.00,,,0.00,WeatherTracker,2017-01-23 09:50:00,
2017-01-23 01:55:00,44.0,42.1,30.06,WNW,287,0.0,0.0,93,0.00,,,0.00,WeatherTracker,2017-01-23 09:55:00,
2017-01-23 02:00:00,43.9,42.0,30.06,WNW,286,0.0,0.0,93,0.00,,,0.00,WeatherTracker,2017-01-23 10:00:00,
2017-01-23 02:05:00,43.8,41.9,30.06,WNW,287,0.0,0.0,93,0.00,,,0.00,WeatherTracker,2017-01-23 10:05:00,
2017-01-23 02:10:00,43.7,41.8,30.06,WNW,287,4.0,0.0,93,0.00,,,0.00,WeatherTracker,2017-01-23 10:10:00,
2017-01-23 02:15:00,43.8,41.9,30.06,WNW,287,1.0,0.0,93,0.00,,,0.00,WeatherTracker,2017-01-23 10:15:00,
2017-01-23 02:20:00,43.8,41.9,30.06,WNW,287,1.0,0.0,93,0.00,,,0.00,WeatherTracker,2017-01-23 10:20:00,
2017-01-23 02:25:00,43.8,41.9,30.06,WNW,287,0.0,0.0,93,0.00,,,0.00,WeatherTracker,2017-01-23 10:25:00,
2017-01-23 02:30:00,44.0,42.1,30.06,WNW,286,1.0,0.0,93,0.00,,,0.00,WeatherTracker,2017-01-23 10:30:00,
2017-01-23 02:36:00,44.0,42.1,30.06,WNW,287,2.0,0.0,93,0.01,,,0.01,WeatherTracker,2017-01-23 10:36:00,
2017-01-23 02:41:00,44.1,42.2,30.06,WNW,287,2.0,0.0,93,0.03,,,0.03,WeatherTracker,2017-01-23 10:41:00,
2017-01-23 02:46:00,44.1,42.2,30.06,WNW,287,2.0,0.0,93,0.04,,,0.04,WeatherTracker,2017-01-23 10:46:00,
2017-01-23 02:51:00,44.1,42.2,30.06,WNW,287,0.0,0.0,93,0.04,,,0.04,WeatherTracker,2017-01-23 10:51:00,
2017-01-23 02:56:00,44.1,42.2,30.06,WNW,287,0.0,0.0,93,0.04,,,0.04,WeatherTracker,2017-01-23 10:56:00,
2017-01-23 03:01:00,44.0,42.1,30.06,WNW,287,0.0,0.0,93,0.04,,,0.04,WeatherTracker,2017-01-23 11:01:00,
2017-01-23 03:06:00,43.9,42.0,30.06,WNW,286,0.0,0.0,93,0.04,,,0.04,WeatherTracker,2017-01-23 11:06:00,
2017-01-23 03:11:00,43.7,41.8,30.06,WNW,286,0.0,0.0,93,0.04,,,0.04,WeatherTracker,2017-01-23 11:11:00,
2017-01-23 03:16:00,43.5,41.6,30.06,WNW,286,0.0,0.0,93,0.04,,,0.04,WeatherTracker,2017-01-23 11:16:00,
2017-01-23 03:21:00,43.2,41.0,30.06,WNW,286,0.0,0.0,92,0.05,,,0.05,WeatherTracker,2017-01-23 11:21:00,
2017-01-23 03:26:00,43.0,40.8,30.06,WNW,286,0.0,0.0,92,0.05,,,0.05,WeatherTracker,2017-01-23 11:26:00,
2017-01-23 03:31:00,42.8,40.6,30.06,WNW,286,0.0,0.0,92,0.05,,,0.05,WeatherTracker,2017-01-23 11:31:00,
2017-01-23 03:36:00,42.5,40.3,30.06,WNW,287,0.0,0.0,92,0.03,,,0.05,WeatherTracker,2017-01-23 11:36:00,
2017-01-23 03:41:00,42.4,40.2,30.06,WNW,287,0.0,0.0,92,0.01,,,0.05,WeatherTracker,2017-01-23 11:41:00,
2017-01-23 03:46:00,42.2,40.0,30.06,WNW,287,0.0,0.0,92,0.01,,,0.05,WeatherTracker,2017-01-23 11:46:00,
2017-01-23 03:51:00,42.1,39.9,30.06,WNW,286,0.0,0.0,92,0.01,,,0.05,WeatherTracker,2017-01-23 11:51:00,
2017-01-23 03:56:00,42.0,39.8,30.06,WNW,287,2.0,0.0,92,0.01,,,0.05,WeatherTracker,2017-01-23 11:56:00,
2017-01-23 04:01:00,42.1,39.9,30.06,WNW,287,0.0,0.0,92,0.02,,,0.06,WeatherTracker,2017-01-23 12:01:00,
2017-01-23 04:07:00,42.2,40.3,30.06,WNW,287,3.0,0.0,93,0.02,,,0.06,WeatherTracker,2017-01-23 12:07:00,
2017-01-23 04:12:00,42.4,40.5,30.06,WNW,287,2.0,0.0,93,0.03,,,0.07,WeatherTracker,2017-01-23 12:12:00,
2017-01-23 04:17:00,42.5,40.6,30.06,WNW,287,1.0,0.0,93,0.04,,,0.08,WeatherTracker,2017-01-23 12:17:00,
2017-01-23 04:22:00,42.5,40.6,30.06,WNW,287,0.0,0.0,93,0.03,,,0.08,WeatherTracker,2017-01-23 12:22:00,
2017-01-23 04:27:00,42.6,40.7,30.06,WNW,286,0.0,0.0,93,0.03,,,0.08,WeatherTracker,2017-01-23 12:27:00,
2017-01-23 04:32:00,42.6,40.7,30.06,WNW,287,0.0,0.0,93,0.03,,,0.08,WeatherTracker,2017-01-23 12:32:00,
2017-01-23 04:37:00,42.7,40.8,30.06,WNW,286,0.0,0.0,93,0.03,,,0.08,WeatherTracker,2017-01-23 12:37:00,
2017-01-23 04:42:00,42.7,40.8,30.06,WNW,286,0.0,0.0,93,0.03,,,0.08,WeatherTracker,2017-01-23 12:42:00,
2017-01-23 04:47:00,42.7,40.8,30.06,WNW,287,0.0,0.0,93,0.03,,,0.08,WeatherTracker,2017-01-23 12:47:00,
2017-01-23 04:52:00,42.7,40.8,30.06,WNW,287,0.0,0.0,93,0.03,,,0.08,WeatherTracker,2017-01-23 12:52:00,
2017-01-23 04:57:00,42.8,40.9,30.06,WNW,287,0.0,0.0,93,0.03,,,0.08,WeatherTracker,2017-01-23 12:57:00,
2017-01-23 05:02:00,42.8,40.9,30.06,WNW,287,0.0,0.0,93,0.02,,,0.08,WeatherTracker,2017-01-23 13:02:00,
2017-01-23 05:07:00,42.8,40.9,30.06,WNW,287,0.0,0.0,93,0.02,,,0.08,WeatherTracker,2017-01-23 13:07:00,
2017-01-23 05:12:00,42.8,40.9,30.06,WNW,287,0.0,0.0,93,0.01,,,0.08,WeatherTracker,2017-01-23 13:12:00,
2017-01-23 05:17:00,42.8,40.9,30.06,WNW,286,0.0,0.0,93,0.00,,,0.08,WeatherTracker,2017-01-23 13:17:00,
2017-01-23 05:22:00,42.7,40.8,30.06,WNW,286,0.0,0.0,93,0.00,,,0.08,WeatherTracker,2017-01-23 13:22:00,
2017-01-23 05:27:00,42.7,40.8,30.06,WNW,287,0.0,0.0,93,0.00,,,0.08,WeatherTracker,2017-01-23 13:27:00,
2017-01-23 05:32:00,42.6,40.7,30.06,WNW,287,0.0,0.0,93,0.00,,,0.08,WeatherTracker,2017-01-23 13:32:00,
2017-01-23 05:37:00,42.5,40.6,30.06,WNW,286,0.0,0.0,93,0.00,,,0.08,WeatherTracker,2017-01-23 13:37:00,
2017-01-23 05:42:00,42.4,40.5,30.06,WNW,286,0.0,0.0,93,0.01,,,0.09,WeatherTracker,2017-01-23 13:42:00,
2017-01-23 05:47:00,42.2,40.3,30.06,WNW,287,0.0,0.0,93,0.01,,,0.09,WeatherTracker,2017-01-23 13:47:00,
2017-01-23 05:52:00,42.0,40.1,30.06,WNW,287,0.0,0.0,93,0.01,,,0.09,WeatherTracker,2017-01-23 13:52:00,
2017-01-23 05:57:00,41.8,39.9,30.06,WNW,287,0.0,0.0,93,0.01,,,0.09,WeatherTracker,2017-01-23 13:57:00,
2017-01-23 06:02:00,41.6,39.7,30.06,WNW,287,0.0,0.0,93,0.01,,,0.09,WeatherTracker,2017-01-23 14:02:00,
2017-01-23 06:08:00,41.5,39.4,30.06,WNW,287,0.0,0.0,92,0.01,,,0.09,WeatherTracker,2017-01-23 14:08:00,
2017-01-23 06:13:00,41.3,39.2,30.06,WNW,287,0.0,0.0,92,0.01,,,0.09,WeatherTracker,2017-01-23 14:13:00,
2017-01-23 06:18:00,41.1,39.2,30.06,WNW,287,0.0,0.0,93,0.01,,,0.09,WeatherTracker,2017-01-23 14:18:00,
2017-01-23 06:23:00,41.0,39.1,30.06,WNW,287,0.0,0.0,93,0.01,,,0.09,WeatherTracker,2017-01-23 14:23:00,
2017-01-23 06:28:00,40.9,39.0,30.06,WNW,287,0.0,0.0,93,0.01,,,0.09,WeatherTracker,2017-01-23 14:28:00,
2017-01-23 06:33:00,40.8,38.7,30.06,WNW,287,0.0,0.0,92,0.01,,,0.09,WeatherTracker,2017-01-23 14:33:00,
2017-01-23 06:38:00,40.6,38.5,30.06,WNW,287,0.0,0.0,92,0.01,,,0.09,WeatherTracker,2017-01-23 14:38:00,
2017-01-23 06:43:00,40.6,38.7,30.06,WNW,286,0.0,0.0,93,0.00,,,0.09,WeatherTracker,2017-01-23 14:43:00,
2017-01-23 06:48:00,40.5,38.6,30.06,WNW,287,0.0,0.0,93,0.00,,,0.09,WeatherTracker,2017-01-23 14:48:00,
2017-01-23 06:53:00,40.6,38.7,30.06,WNW,287,0.0,0.0,93,0.00,,,0.09,WeatherTracker,2017-01-23 14:53:00,
2017-01-23 06:58:00,40.9,39.0,30.06,WNW,286,1.0,0.0,93,0.00,,,0.09,WeatherTracker,2017-01-23 14:58:00,
2017-01-23 07:03:00,41.2,39.3,30.06,WNW,287,0.0,0.0,93,0.00,,,0.09,WeatherTracker,2017-01-23 15:03:00,
2017-01-23 07:08:00,41.3,39.4,30.06,WNW,287,0.0,0.0,93,0.00,,,0.09,WeatherTracker,2017-01-23 15:08:00,
2017-01-23 07:13:00,41.3,39.4,30.06,WNW,287,0.0,0.0,93,0.00,,,0.09,WeatherTracker,2017-01-23 15:13:00,
2017-01-23 07:18:00,41.2,39.3,30.06,WNW,286,0.0,0.0,93,0.00,,,0.09,WeatherTracker,2017-01-23 15:18:00,
2017-01-23 07:23:00,41.1,39.2,30.06,WNW,287,0.0,0.0,93,0.00,,,0.09,WeatherTracker,2017-01-23 15:23:00,
2017-01-23 07:28:00,41.0,39.1,30.06,WNW,287,0.0,0.0,93,0.00,,,0.09,WeatherTracker,2017-01-23 15:28:00,
2017-01-23 07:33:00,40.8,38.9,30.06,WNW,287,0.0,0.0,93,0.00,,,0.09,WeatherTracker,2017-01-23 15:33:00,
2017-01-23 07:39:00,40.6,38.7,30.06,WNW,286,0.0,0.0,93,0.00,,,0.09,WeatherTracker,2017-01-23 15:39:00,
2017-01-23 07:44:00,40.4,38.5,30.06,WNW,287,0.0,0.0,93,0.00,,,0.09,WeatherTracker,2017-01-23 15:44:00,
2017-01-23 07:49:00,40.2,38.3,30.06,WNW,287,0.0,0.0,93,0.00,,,0.09,WeatherTracker,2017-01-23 15:49:00,
2017-01-23 07:54:00,40.1,38.2,30.06,WNW,287,0.0,0.0,93,0.00,,,0.09,WeatherTracker,2017-01-23 15:54:00,
2017-01-23 07:59:00,40.0,38.1,30.06,WNW,286,0.0,0.0,93,0.00,,,0.09,WeatherTracker,2017-01-23 15:59:00,
2017-01-23 08:04:00,40.0,38.1,30.06,WNW,287,0.0,0.0,93,0.00,,,0.09,WeatherTracker,2017-01-23 16:04:00,
2017-01-23 08:09:00,40.1,38.2,30.06,WNW,286,0.0,0.0,93,0.00,,,0.09,WeatherTracker,2017-01-23 16:09:00,
2017-01-23 08:14:00,40.1,38.2,30.06,WNW,287,0.0,0.0,93,0.00,,,0.09,WeatherTracker,2017-01-23 16:14:00,
2017-01-23 08:19:00,40.1,38.2,30.06,WNW,286,0.0,0.0,93,0.00,,,0.09,WeatherTracker,2017-01-23 16:19:00,
2017-01-23 08:24:00,40.2,38.3,30.06,WNW,286,0.0,0.0,93,0.00,,,0.09,WeatherTracker,2017-01-23 16:24:00,
2017-01-23 08:29:00,40.3,38.4,30.06,WNW,287,0.0,0.0,93,0.00,,,0.09,WeatherTracker,2017-01-23 16:29:00,
2017-01-23 08:34:00,40.6,38.7,30.06,WNW,287,0.0,0.0,93,0.00,,,0.09,WeatherTracker,2017-01-23 16:34:00,
2017-01-23 08:39:00,41.2,39.3,30.06,WNW,287,0.0,0.0,93,0.00,,,0.09,WeatherTracker,2017-01-23 16:39:00,
2017-01-23 08:44:00,41.7,39.8,30.06,WNW,287,0.0,0.0,93,0.00,,,0.09,WeatherTracker,2017-01-23 16:44:00,
2017-01-23 08:49:00,42.1,40.2,30.06,WNW,287,1.0,0.0,93,0.00,,,0.09,WeatherTracker,2017-01-23 16:49:00,
2017-01-23 08:54:00,42.5,40.6,30.06,WNW,287,0.0,0.0,93,0.00,,,0.09,WeatherTracker,2017-01-23 16:54:00,
2017-01-23 08:59:00,42.9,41.0,30.06,WNW,287,0.0,0.0,93,0.00,,,0.09,WeatherTracker,2017-01-23 16:59:00,
2017-01-23 09:04:00,43.3,41.4,30.06,WNW,287,0.0,0.0,93,0.00,,,0.09,WeatherTracker,2017-01-23 17:04:00,
2017-01-23 09:09:00,43.6,41.7,30.06,WNW,287,0.0,0.0,93,0.00,,,0.09,WeatherTracker,2017-01-23 17:09:00,
2017-01-23 09:14:00,43.9,42.0,30.06,WNW,287,0.0,0.0,93,0.00,,,0.09,WeatherTracker,2017-01-23 17:14:00,
2017-01-23 09:19:00,44.1,42.2,30.06,WNW,287,1.0,0.0,93,0.00,,,0.09,WeatherTracker,2017-01-23 17:19:00,
2017-01-23 09:24:00,44.1,42.2,30.06,WNW,287,0.0,0.0,93,0.00,,,0.09,WeatherTracker,2017-01-23 17:24:00,
2017-01-23 09:29:00,44.2,42.3,30.06,WNW,287,1.0,0.0,93,0.00,,,0.09,WeatherTracker,2017-01-23 17:29:00,
2017-01-23 09:34:00,44.3,42.4,30.06,WNW,287,0.0,0.0,93,0.00,,,0.09,WeatherTracker,2017-01-23 17:34:00,
2017-01-23 09:39:00,44.3,42.4,30.06,WNW,287,0.0,0.0,93,0.00,,,0.09,WeatherTracker,2017-01-23 17:39:00,
2017-01-23 09:44:00,44.3,42.4,30.06,WNW,286,1.0,0.0,93,0.00,,,0.09,WeatherTracker,2017-01-23 17:44:00,
2017-01-23 09:49:00,44.4,42.5,30.06,WNW,287,0.0,0.0,93,0.00,,,0.09,WeatherTracker,2017-01-23 17:49:00,
2017-01-23 09:54:00,44.5,42.6,30.06,WNW,287,0.0,0.0,93,0.00,,,0.09,WeatherTracker,2017-01-23 17:54:00,
2017-01-23 09:59:00,44.7,42.8,30.06,WNW,287,2.0,0.0,93,0.00,,,0.09,WeatherTracker,2017-01-23 17:59:00,
2017-01-23 10:05:00,44.7,42.8,30.06,WNW,287,1.0,0.0,93,0.00,,,0.09,WeatherTracker,2017-01-23 18:05:00,
2017-01-23 10:10:00,44.9,43.0,30.06,WNW,287,0.0,0.0,93,0.00,,,0.09,WeatherTracker,2017-01-23 18:10:00,
2017-01-23 10:15:00,45.2,43.3,30.06,WNW,287,0.0,0.0,93,0.00,,,0.09,WeatherTracker,2017-01-23 18:15:00,
2017-01-23 10:20:00,45.6,43.7,30.06,WNW,287,0.0,0.0,93,0.00,,,0.09,WeatherTracker,2017-01-23 18:20:00,
2017-01-23 10:25:00,46.0,44.1,30.06,WNW,287,2.0,0.0,93,0.00,,,0.09,WeatherTracker,2017-01-23 18:25:00,
2017-01-23 10:30:00,46.5,44.6,30.06,WNW,287,2.0,0.0,93,0.00,,,0.09,WeatherTracker,2017-01-23 18:30:00,
2017-01-23 10:35:00,47.0,45.1,30.06,WNW,287,0.0,0.0,93,0.00,,,0.09,WeatherTracker,2017-01-23 18:35:00,
2017-01-23 10:40:00,47.3,45.4,30.06,WNW,287,2.0,0.0,93,0.00,,,0.09,WeatherTracker,2017-01-23 18:40:00,
2017-01-23 10:45:00,47.6,45.7,30.06,WNW,287,0.0,0.0,93,0.00,,,0.09,WeatherTracker,2017-01-23 18:45:00,
2017-01-23 10:50:00,47.9,46.0,30.06,WNW,287,0.0,0.0,93,0.00,,,0.09,WeatherTracker,2017-01-23 18:50:00,
2017-01-23 10:55:00,48.0,46.1,30.06,WNW,287,2.0,0.0,93,0.00,,,0.09,WeatherTracker,2017-01-23 18:55:00,
2017-01-23 11:00:00,48.1,45.9,30.06,WNW,287,0.0,0.0,92,0.00,,,0.09,WeatherTracker,2017-01-23 19:00:00,
2017-01-23 11:05:00,48.2,46.0,30.06,WNW,287,2.0,0.0,92,0.00,,,0.09,WeatherTracker,2017-01-23 19:05:00,
2017-01-23 11:10:00,48.4,45.6,30.06,WNW,286,4.0,0.0,90,0.00,,,0.09,WeatherTracker,2017-01-23 19:10:00,
2017-01-23 11:15:00,48.7,45.9,30.06,WNW,287,0.0,0.0,90,0.00,,,0.09,WeatherTracker,2017-01-23 19:15:00,
2017-01-23 11:20:00,48.7,45.6,30.06,WNW,287,5.0,0.0,89,0.00,,,0.09,WeatherTracker,2017-01-23 19:20:00,
2017-01-23 11:25:00,48.7,45.3,30.06,WNW,287,3.0,0.0,88,0.00,,,0.09,WeatherTracker,2017-01-23 19:25:00,
2017-01-23 11:30:00,48.8,45.7,30.06,WNW,287,2.0,0.0,89,0.00,,,0.09,WeatherTracker,2017-01-23 19:30:00,
2017-01-23 11:35:00,49.0,45.6,30.06,WNW,287,4.0,0.0,88,0.00,,,0.09,WeatherTracker,2017-01-23 19:35:00,
2017-01-23 11:40:00,49.1,45.7,30.06,WNW,287,1.0,0.0,88,0.00,,,0.09,WeatherTracker,2017-01-23 19:40:00,
2017-01-23 11:46:00,49.3,45.9,30.06,WNW,287,2.0,0.0,88,0.00,,,0.09,WeatherTracker,2017-01-23 19:46:00,
2017-01-23 11:51:00,49.3,45.6,30.06,West,279,3.0,0.0,87,0.00,,,0.09,WeatherTracker,2017-01-23 19:51:00,
2017-01-23 11:56:00,49.3,45.6,30.06,West,278,1.0,0.0,87,0.00,,,0.09,WeatherTracker,2017-01-23 19:56:00,
2017-01-23 12:01:00,49.4,45.7,30.06,West,278,1.0,0.0,87,0.00,,,0.09,WeatherTracker,2017-01-23 20:01:00,
2017-01-23 12:06:00,49.6,45.6,30.06,West,278,1.0,0.0,86,0.00,,,0.09,WeatherTracker,2017-01-23 20:06:00,
2017-01-23 12:11:00,49.7,45.7,30.06,West,278,3.0,0.0,86,0.00,,,0.09,WeatherTracker,2017-01-23 20:11:00,
2017-01-23 12:16:00,49.9,45.9,30.06,West,279,3.0,0.0,86,0.00,,,0.09,WeatherTracker,2017-01-23 20:16:00,
2017-01-23 12:21:00,50.5,46.2,30.06,West,280,4.0,0.0,85,0.00,,,0.09,WeatherTracker,2017-01-23 20:21:00,
2017-01-23 12:26:00,50.9,45.9,30.06,WNW,282,1.0,0.0,83,0.00,,,0.09,WeatherTracker,2017-01-23 20:26:00,
2017-01-23 12:31:00,51.3,46.3,30.06,WNW,282,3.0,0.0,83,0.00,,,0.09,WeatherTracker,2017-01-23 20:31:00,
2017-01-23 12:36:00,51.7,45.7,30.06,West,281,2.0,0.0,80,0.00,,,0.09,WeatherTracker,2017-01-23 20:36:00,
2017-01-23 12:41:00,52.2,46.2,30.06,WSW,256,2.0,0.0,80,0.00,,,0.09,WeatherTracker,2017-01-23 20:41:00,
2017-01-23 12:46:00,52.5,46.2,30.06,WSW,242,5.0,0.0,79,0.00,,,0.09,WeatherTracker,2017-01-23 20:46:00,
2017-01-23 12:51:00,52.6,45.9,30.06,WSW,242,2.0,0.0,78,0.00,,,0.09,WeatherTracker,2017-01-23 20:51:00,
2017-01-23 12:56:00,52.4,45.4,30.06,WSW,242,1.0,0.0,77,0.00,,,0.09,WeatherTracker,2017-01-23 20:56:00,
2017-01-23 13:01:00,52.3,45.3,30.06,WSW,242,1.0,0.0,77,0.00,,,0.09,WeatherTracker,2017-01-23 21:01:00,
2017-01-23 13:06:00,52.1,45.1,30.06,WSW,245,6.0,0.0,77,0.00,,,0.09,WeatherTracker,2017-01-23 21:06:00,
2017-01-23 13:11:00,51.8,45.2,30.06,WSW,248,1.0,0.0,78,0.00,,,0.09,WeatherTracker,2017-01-23 21:11:00,
2017-01-23 13:16:00,51.5,44.9,30.06,WSW,246,9.0,0.0,78,0.00,,,0.09,WeatherTracker,2017-01-23 21:16:00,
2017-01-23 13:21:00,51.2,44.6,30.06,WSW,245,6.0,0.0,78,0.00,,,0.09,WeatherTracker,2017-01-23 21:21:00,
2017-01-23 13:26:00,50.7,44.1,30.06,West,269,2.0,0.0,78,0.00,,,0.09,WeatherTracker,2017-01-23 21:26:00,
2017-01-23 13:32:00,50.3,44.0,30.06,West,268,6.0,0.0,79,0.00,,,0.09,WeatherTracker,2017-01-23 21:32:00,
2017-01-23 13:37:00,49.9,43.3,30.06,West,263,3.0,0.0,78,0.00,,,0.09,WeatherTracker,2017-01-23 21:37:00,
2017-01-23 13:42:00,49.6,43.4,30.06,West,263,0.0,0.0,79,0.00,,,0.09,WeatherTracker,2017-01-23 21:42:00,
2017-01-23 13:47:00,49.5,43.3,30.06,West,263,1.0,0.0,79,0.00,,,0.09,WeatherTracker,2017-01-23 21:47:00,
2017-01-23 13:52:00,49.4,42.8,30.06,West,263,0.0,0.0,78,0.00,,,0.09,WeatherTracker,2017-01-23 21:52:00,
2017-01-23 13:57:00,49.3,42.4,30.06,West,263,3.0,0.0,77,0.00,,,0.09,WeatherTracker,2017-01-23 21:57:00,
2017-01-23 13:58:00,49.3,42.4,30.06,West,263,2.0,0.0,77,0.00,,,0.09,WeatherTracker,2017-01-23 21:58:00,
2017-01-23 14:03:00,49.6,42.3,30.06,West,263,3.0,0.0,76,0.00,,,0.09,WeatherTracker,2017-01-23 22:03:00,
2017-01-23 14:08:00,50.0,42.4,30.06,West,268,4.0,0.0,75,0.00,,,0.09,WeatherTracker,2017-01-23 22:08:00,
2017-01-23 14:13:00,50.5,43.2,30.06,West,267,1.0,0.0,76,0.00,,,0.09,WeatherTracker,2017-01-23 22:13:00,
2017-01-23 14:19:00,51.0,43.0,30.06,West,267,5.0,0.0,74,0.00,,,0.09,WeatherTracker,2017-01-23 22:19:00,
2017-01-23 14:24:00,51.3,43.3,30.06,West,259,3.0,0.0,74,0.00,,,0.09,WeatherTracker,2017-01-23 22:24:00,
2017-01-23 14:29:00,51.6,43.9,30.06,SW,232,2.0,0.0,75,0.00,,,0.09,WeatherTracker,2017-01-23 22:29:00,
2017-01-23 14:34:00,51.8,43.8,30.06,WSW,237,2.0,0.0,74,0.00,,,0.09,WeatherTracker,2017-01-23 22:34:00,
2017-01-23 14:39:00,51.9,44.2,30.06,SW,230,6.0,0.0,75,0.00,,,0.09,WeatherTracker,2017-01-23 22:39:00,
2017-01-23 14:44:00,52.0,44.7,30.06,SW,232,1.0,0.0,76,0.00,,,0.09,WeatherTracker,2017-01-23 22:44:00,
2017-01-23 14:49:00,52.1,44.4,30.06,SW,231,4.0,0.0,75,0.00,,,0.09,WeatherTracker,2017-01-23 22:49:00,
2017-01-23 14:54:00,52.1,44.8,30.06,SW,234,3.0,0.0,76,0.00,,,0.09,WeatherTracker,2017-01-23 22:54:00,
2017-01-23 14:59:00,52.2,44.5,30.06,West,265,3.0,0.0,75,0.00,,,0.09,WeatherTracker,2017-01-23 22:59:00,
2017-01-23 15:04:00,52.2,44.2,30.06,West,259,2.0,0.0,74,0.00,,,0.09,WeatherTracker,2017-01-23 23:04:00,
2017-01-23 15:09:00,52.4,43.3,30.06,WSW,254,4.0,0.0,71,0.00,,,0.09,WeatherTracker,2017-01-23 23:09:00,
2017-01-23 15:14:00,52.6,43.5,30.06,WSW,254,5.0,0.0,71,0.00,,,0.09,WeatherTracker,2017-01-23 23:14:00,
2017-01-23 15:19:00,52.8,42.9,30.06,West,268,6.0,0.0,69,0.00,,,0.09,WeatherTracker,2017-01-23 23:19:00,
2017-01-23 15:24:00,53.0,43.5,30.06,SW,223,2.0,0.0,70,0.00,,,0.09,WeatherTracker,2017-01-23 23:24:00,
2017-01-23 15:29:00,53.0,43.5,30.06,SW,219,3.0,0.0,70,0.00,,,0.09,WeatherTracker,2017-01-23 23:29:00,
2017-01-23 15:34:00,53.0,43.5,30.06,SW,226,5.0,0.0,70,0.00,,,0.09,WeatherTracker,2017-01-23 23:34:00,
2017-01-23 15:39:00,52.8,43.3,30.06,SW,228,4.0,0.0,70,0.00,,,0.09,WeatherTracker,2017-01-23 23:39:00,
2017-01-23 15:44:00,52.7,43.2,30.06,SW,228,2.0,0.0,70,0.00,,,0.09,WeatherTracker,2017-01-23 23:44:00,
2017-01-23 15:49:00,52.5,43.4,30.06,SW,229,3.0,0.0,71,0.00,,,0.09,WeatherTracker,2017-01-23 23:49:00,
2017-01-23 15:54:00,52.3,42.8,30.06,SW,229,2.0,0.0,70,0.00,,,0.09,WeatherTracker,2017-01-23 23:54:00,
2017-01-23 15:59:00,52.1,42.6,30.06,SW,232,2.0,0.0,70,0.00,,,0.09,WeatherTracker,2017-01-23 23:59:00,
2017-01-23 16:05:00,51.8,42.3,30.06,SW,234,4.0,0.0,70,0.00,,,0.09,WeatherTracker,2017-01-24 00:05:00,
2017-01-23 16:10:00,51.6,42.5,30.06,SW,234,1.0,0.0,71,0.00,,,0.09,WeatherTracker,2017-01-24 00:10:00,
2017-01-23 16:15:00,51.4,42.7,30.06,SW,234,1.0,0.0,72,0.00,,,0.09,WeatherTracker,2017-01-24 00:15:00,
2017-01-23 16:20:00,51.2,42.8,30.06,SW,234,2.0,0.0,73,0.00,,,0.09,WeatherTracker,2017-01-24 00:20:00,
2017-01-23 16:25:00,51.1,43.1,30.06,SW,233,3.0,0.0,74,0.00,,,0.09,WeatherTracker,2017-01-24 00:25:00,
2017-01-23 16:30:00,51.0,42.7,30.06,SW,232,2.0,0.0,73,0.00,,,0.09,WeatherTracker,2017-01-24 00:30:00,
2017-01-23 16:35:00,50.8,42.1,30.06,SW,231,2.0,0.0,72,0.00,,,0.09,WeatherTracker,2017-01-24 00:35:00,
2017-01-23 16:40:00,50.7,42.4,30.06,SW,229,4.0,0.0,73,0.00,,,0.09,WeatherTracker,2017-01-24 00:40:00,
2017-01-23 16:45:00,50.5,42.2,30.06,SW,229,3.0,0.0,73,0.00,,,0.09,WeatherTracker,2017-01-24 00:45:00,
2017-01-23 16:50:00,50.4,42.1,30.06,SW,229,3.0,0.0,73,0.00,,,0.09,WeatherTracker,2017-01-24 00:50:00,
2017-01-23 16:55:00,50.3,42.3,30.06,SW,230,4.0,0.0,74,0.00,,,0.09,WeatherTracker,2017-01-24 00:55:00,
2017-01-23 17:00:00,50.0,42.0,30.06,SW,229,1.0,0.0,74,0.00,,,0.09,WeatherTracker,2017-01-24 01:00:00,
2017-01-23 17:05:00,49.8,41.5,30.06,SW,229,2.0,0.0,73,0.00,,,0.09,WeatherTracker,2017-01-24 01:05:00,
2017-01-23 17:10:00,49.5,41.6,30.06,SW,229,2.0,0.0,74,0.00,,,0.09,WeatherTracker,2017-01-24 01:10:00,
2017-01-23 17:15:00,49.2,41.3,30.06,SW,229,3.0,0.0,74,0.00,,,0.09,WeatherTracker,2017-01-24 01:15:00,
2017-01-23 17:20:00,48.9,41.3,30.06,SW,229,2.0,0.0,75,0.00,,,0.09,WeatherTracker,2017-01-24 01:20:00,
2017-01-23 17:25:00,48.7,41.1,30.06,SW,229,1.0,0.0,75,0.00,,,0.09,WeatherTracker,2017-01-24 01:25:00,
2017-01-23 17:30:00,48.4,41.2,30.06,SW,229,0.0,0.0,76,0.00,,,0.09,WeatherTracker,2017-01-24 01:30:00,
2017-01-23 17:35:00,48.1,41.2,30.06,SW,229,1.0,0.0,77,0.00,,,0.09,WeatherTracker,2017-01-24 01:35:00,
2017-01-23 17:40:00,47.8,40.9,30.06,SW,229,0.0,0.0,77,0.00,,,0.09,WeatherTracker,2017-01-24 01:40:00,
2017-01-23 17:45:00,47.6,40.8,30.06,SW,229,0.0,0.0,77,0.00,,,0.09,WeatherTracker,2017-01-24 01:45:00,
2017-01-23 17:50:00,47.4,40.9,30.06,SW,229,0.0,0.0,78,0.00,,,0.09,WeatherTracker,2017-01-24 01:50:00,
2017-01-23 17:55:00,47.1,40.6,30.06,SW,229,0.0,0.0,78,0.00,,,0.09,WeatherTracker,2017-01-24 01:55:00,
2017-01-23 18:00:00,46.9,40.7,30.06,SW,229,0.0,0.0,79,0.00,,,0.09,WeatherTracker,2017-01-24 02:00:00,
2017-01-23 18:05:00,46.6,40.8,30.06,SW,229,0.0,0.0,80,0.00,,,0.09,WeatherTracker,2017-01-24 02:05:00,
2017-01-23 18:10:00,46.4,40.9,30.06,SW,229,0.0,0.0,81,0.00,,,0.09,WeatherTracker,2017-01-24 02:10:00,
2017-01-23 18:16:00,46.2,40.7,30.06,SW,229,0.0,0.0,81,0.00,,,0.09,WeatherTracker,2017-01-24 02:16:00,
2017-01-23 18:21:00,46.0,40.8,30.06,SW,229,0.0,0.0,82,0.00,,,0.09,WeatherTracker,2017-01-24 02:21:00,
2017-01-23 18:26:00,45.8,40.6,30.06,SW,229,0.0,0.0,82,0.00,,,0.09,WeatherTracker,2017-01-24 02:26:00,
2017-01-23 18:31:00,45.6,40.7,30.06,SW,229,0.0,0.0,83,0.00,,,0.09,WeatherTracker,2017-01-24 02:31:00,
2017-01-23 18:36:00,45.4,40.9,30.06,SW,229,0.0,0.0,84,0.00,,,0.09,WeatherTracker,2017-01-24 02:36:00,
2017-01-23 18:41:00,45.2,40.7,30.06,SW,229,0.0,0.0,84,0.00,,,0.09,WeatherTracker,2017-01-24 02:41:00,
2017-01-23 18:46:00,45.0,40.5,30.06,SW,229,0.0,0.0,84,0.00,,,0.09,WeatherTracker,2017-01-24 02:46:00,
2017-01-23 18:51:00,44.8,40.3,30.06,SW,229,0.0,0.0,84,0.00,,,0.09,WeatherTracker,2017-01-24 02:51:00,
2017-01-23 18:56:00,44.6,40.4,30.06,SW,229,0.0,0.0,85,0.00,,,0.09,WeatherTracker,2017-01-24 02:56:00,
2017-01-23 19:01:00,44.5,40.6,30.06,SW,229,0.0,0.0,86,0.00,,,0.09,WeatherTracker,2017-01-24 03:01:00,
2017-01-23 19:06:00,44.6,40.4,30.06,SW,229,0.0,0.0,85,0.00,,,0.09,WeatherTracker,2017-01-24 03:06:00,
2017-01-23 19:11:00,44.6,40.4,30.06,SW,229,1.0,0.0,85,0.00,,,0.09,WeatherTracker,2017-01-24 03:11:00,
2017-01-23 19:16:00,44.7,40.5,30.06,SW,229,3.0,0.0,85,0.00,,,0.09,WeatherTracker,2017-01-24 03:16:00,
2017-01-23 19:21:00,44.7,40.2,30.06,SW,229,2.0,0.0,84,0.00,,,0.09,WeatherTracker,2017-01-24 03:21:00,
2017-01-23 19:26:00,44.8,40.3,30.06,SW,229,0.0,0.0,84,0.00,,,0.09,WeatherTracker,2017-01-24 03:26:00,
2017-01-23 19:31:00,44.9,40.4,30.06,SW,229,1.0,0.0,84,0.00,,,0.09,WeatherTracker,2017-01-24 03:31:00,
2017-01-23 19:36:00,44.9,40.4,30.06,SW,229,0.0,0.0,84,0.00,,,0.09,WeatherTracker,2017-01-24 03:36:00,
2017-01-23 19:41:00,44.9,40.4,30.06,SW,229,0.0,0.0,84,0.00,,,0.09,WeatherTracker,2017-01-24 03:41:00,
2017-01-23 19:46:00,44.9,40.4,30.06,SW,229,0.0,0.0,84,0.00,,,0.09,WeatherTracker,2017-01-24 03:46:00,
2017-01-23 19:51:00,44.8,40.6,30.06,SW,229,0.0,0.0,85,0.00,,,0.09,WeatherTracker,2017-01-24 03:51:00,
2017-01-23 19:56:00,44.7,40.5,30.06,SW,229,0.0,0.0,85,0.00,,,0.09,WeatherTracker,2017-01-24 03:56:00,
2017-01-23 20:01:00,44.7,40.5,30.06,SW,229,0.0,0.0,85,0.00,,,0.09,WeatherTracker,2017-01-24 04:01:00,
2017-01-23 20:06:00,44.6,40.4,30.06,SW,229,0.0,0.0,85,0.00,,,0.09,WeatherTracker,2017-01-24 04:06:00,
2017-01-23 20:11:00,44.5,40.3,30.06,SW,229,0.0,0.0,85,0.00,,,0.09,WeatherTracker,2017-01-24 04:11:00,
2017-01-23 20:17:00,44.5,40.6,30.06,SW,229,0.0,0.0,86,0.00,,,0.09,WeatherTracker,2017-01-24 04:17:00,
2017-01-23 20:22:00,44.5,40.6,30.06,SW,229,0.0,0.0,86,0.00,,,0.09,WeatherTracker,2017-01-24 04:22:00,
2017-01-23 20:27:00,44.4,40.5,30.06,SW,229,0.0,0.0,86,0.00,,,0.09,WeatherTracker,2017-01-24 04:27:00,
2017-01-23 20:32:00,44.4,40.5,30.06,SW,229,0.0,0.0,86,0.00,,,0.09,WeatherTracker,2017-01-24 04:32:00,
2017-01-23 20:37:00,44.3,40.4,30.06,SW,229,0.0,0.0,86,0.00,,,0.09,WeatherTracker,2017-01-24 04:37:00,
2017-01-23 20:42:00,44.3,40.4,30.06,SW,229,0.0,0.0,86,0.00,,,0.09,WeatherTracker,2017-01-24 04:42:00,
2017-01-23 20:47:00,44.4,40.8,30.06,SW,229,0.0,0.0,87,0.00,,,0.09,WeatherTracker,2017-01-24 04:47:00,
2017-01-23 20:52:00,44.4,40.8,30.06,SW,229,0.0,0.0,87,0.00,,,0.09,WeatherTracker,2017-01-24 04:52:00,
2017-01-23 20:57:00,44.4,40.8,30.06,SW,229,0.0,0.0,87,0.00,,,0.09,WeatherTracker,2017-01-24 04:57:00,
2017-01-23 21:02:00,44.4,40.8,30.06,SW,229,0.0,0.0,87,0.00,,,0.09,WeatherTracker,2017-01-24 05:02:00,
2017-01-23 21:07:00,44.4,40.8,30.06,SW,229,0.0,0.0,87,0.00,,,0.09,WeatherTracker,2017-01-24 05:07:00,
2017-01-23 21:12:00,44.5,40.9,30.06,SW,229,0.0,0.0,87,0.00,,,0.09,WeatherTracker,2017-01-24 05:12:00,
2017-01-23 21:17:00,44.5,40.9,30.06,SW,229,0.0,0.0,87,0.00,,,0.09,WeatherTracker,2017-01-24 05:17:00,
2017-01-23 21:22:00,44.5,41.2,30.06,SW,229,0.0,0.0,88,0.00,,,0.09,WeatherTracker,2017-01-24 05:22:00,
2017-01-23 21:27:00,44.6,41.3,30.06,SW,229,0.0,0.0,88,0.00,,,0.09,WeatherTracker,2017-01-24 05:27:00,
2017-01-23 21:32:00,44.6,41.3,30.06,SW,229,0.0,0.0,88,0.00,,,0.09,WeatherTracker,2017-01-24 05:32:00,